sensor_id;sensor_type;location;lat;lon;timestamp;pressure;altitude;pressure_sealevel;temperature;humidity
55010;BME280;40903;51.638;7.528;2022-11-11T00:01:16;102308.00;;;8.94;93.76
55010;BME280;40903;51.638;7.528;2022-11-11T00:03:42;102308.94;;;8.88;94.31
55010;BME280;40903;51.638;7.528;2022-11-11T00:06:10;102306.72;;;8.85;94.92
55010;BME280;40903;51.638;7.528;2022-11-11T00:08:36;102307.69;;;8.79;95.30
55010;BME280;40903;51.638;7.528;2022-11-11T00:11:09;102306.00;;;8.78;95.70
55010;BME280;40903;51.638;7.528;2022-11-11T00:13:35;102306.00;;;8.78;96.42
55010;BME280;40903;51.638;7.528;2022-11-11T00:16:07;102301.75;;;8.82;97.04
55010;BME280;40903;51.638;7.528;2022-11-11T00:18:33;102291.56;;;8.89;96.74
55010;BME280;40903;51.638;7.528;2022-11-11T00:21:18;102294.16;;;8.96;96.33
55010;BME280;40903;51.638;7.528;2022-11-11T00:24:03;102303.81;;;9.03;95.94
55010;BME280;40903;51.638;7.528;2022-11-11T00:26:47;102298.25;;;9.10;95.54
55010;BME280;40903;51.638;7.528;2022-11-11T00:29:12;102295.97;;;9.18;94.99
55010;BME280;40903;51.638;7.528;2022-11-11T00:31:37;102295.72;;;9.20;94.56
55010;BME280;40903;51.638;7.528;2022-11-11T00:34:23;102291.69;;;9.22;93.84
55010;BME280;40903;51.638;7.528;2022-11-11T00:36:48;102289.78;;;9.23;94.04
55010;BME280;40903;51.638;7.528;2022-11-11T00:39:13;102290.03;;;9.21;94.30
55010;BME280;40903;51.638;7.528;2022-11-11T00:41:39;102287.78;;;9.18;94.02
55010;BME280;40903;51.638;7.528;2022-11-11T00:44:04;102282.34;;;9.18;94.16
55010;BME280;40903;51.638;7.528;2022-11-11T00:46:29;102283.91;;;9.14;94.15
55010;BME280;40903;51.638;7.528;2022-11-11T00:49:13;102287.00;;;9.06;94.75
55010;BME280;40903;51.638;7.528;2022-11-11T00:51:57;102294.59;;;9.04;94.92
55010;BME280;40903;51.638;7.528;2022-11-11T00:54:22;102290.00;;;9.05;95.47
55010;BME280;40903;51.638;7.528;2022-11-11T00:56:47;102292.13;;;9.03;95.26
55010;BME280;40903;51.638;7.528;2022-11-11T00:59:13;102296.38;;;8.99;95.36
55010;BME280;40903;51.638;7.528;2022-11-11T01:01:38;102304.09;;;9.02;95.67
55010;BME280;40903;51.638;7.528;2022-11-11T01:04:04;102298.28;;;8.98;95.88
55010;BME280;40903;51.638;7.528;2022-11-11T01:06:30;102302.78;;;8.93;96.19
55010;BME280;40903;51.638;7.528;2022-11-11T01:08:55;102298.91;;;8.89;96.27
55010;BME280;40903;51.638;7.528;2022-11-11T01:11:22;102302.84;;;8.81;95.75
55010;BME280;40903;51.638;7.528;2022-11-11T01:13:48;102306.50;;;8.75;96.13
55010;BME280;40903;51.638;7.528;2022-11-11T01:16:19;102307.22;;;8.71;96.64
55010;BME280;40903;51.638;7.528;2022-11-11T01:18:44;102297.66;;;8.68;96.81
55010;BME280;40903;51.638;7.528;2022-11-11T01:21:16;102307.69;;;8.68;97.59
55010;BME280;40903;51.638;7.528;2022-11-11T01:23:42;102304.66;;;8.64;97.85
55010;BME280;40903;51.638;7.528;2022-11-11T01:28:48;102309.59;;;8.67;99.12
55010;BME280;40903;51.638;7.528;2022-11-11T01:31:15;102308.41;;;8.75;99.08
55010;BME280;40903;51.638;7.528;2022-11-11T01:33:41;102312.78;;;8.76;98.64
55010;BME280;40903;51.638;7.528;2022-11-11T01:36:12;102307.56;;;8.74;98.51
55010;BME280;40903;51.638;7.528;2022-11-11T01:38:39;102306.50;;;8.75;98.69
55010;BME280;40903;51.638;7.528;2022-11-11T01:41:09;102309.94;;;8.82;98.03
55010;BME280;40903;51.638;7.528;2022-11-11T01:43:54;102309.09;;;8.82;97.96
55010;BME280;40903;51.638;7.528;2022-11-11T01:46:27;102307.69;;;8.79;98.07
55010;BME280;40903;51.638;7.528;2022-11-11T01:48:57;102313.22;;;8.84;97.96
55010;BME280;40903;51.638;7.528;2022-11-11T01:54:17;102321.03;;;8.81;97.87
55010;BME280;40903;51.638;7.528;2022-11-11T01:56:48;102322.00;;;8.75;97.79
55010;BME280;40903;51.638;7.528;2022-11-11T01:59:16;102317.38;;;8.75;98.12
55010;BME280;40903;51.638;7.528;2022-11-11T02:01:43;102321.16;;;8.74;97.93
55010;BME280;40903;51.638;7.528;2022-11-11T02:04:09;102323.88;;;8.74;97.73
55010;BME280;40903;51.638;7.528;2022-11-11T02:06:57;102331.09;;;8.69;97.80
55010;BME280;40903;51.638;7.528;2022-11-11T02:09:24;102328.63;;;8.67;97.60
55010;BME280;40903;51.638;7.528;2022-11-11T02:11:51;102325.34;;;8.65;97.96
55010;BME280;40903;51.638;7.528;2022-11-11T02:14:41;102330.31;;;8.57;97.61
55010;BME280;40903;51.638;7.528;2022-11-11T02:17:12;102335.38;;;8.53;98.25
55010;BME280;40903;51.638;7.528;2022-11-11T02:19:50;102328.16;;;8.47;98.52
55010;BME280;40903;51.638;7.528;2022-11-11T02:25:12;102322.50;;;8.37;98.70
55010;BME280;40903;51.638;7.528;2022-11-11T02:27:40;102327.81;;;8.32;99.13
55010;BME280;40903;51.638;7.528;2022-11-11T02:30:07;102326.63;;;8.28;99.31
55010;BME280;40903;51.638;7.528;2022-11-11T02:32:40;102335.03;;;8.27;100.00
55010;BME280;40903;51.638;7.528;2022-11-11T02:35:19;102330.91;;;8.24;99.90
55010;BME280;40903;51.638;7.528;2022-11-11T02:37:48;102334.31;;;8.20;99.94
55010;BME280;40903;51.638;7.528;2022-11-11T02:40:25;102331.81;;;8.18;99.90
55010;BME280;40903;51.638;7.528;2022-11-11T02:42:55;102333.91;;;8.16;100.00
55010;BME280;40903;51.638;7.528;2022-11-11T02:45:21;102328.75;;;8.15;100.00
55010;BME280;40903;51.638;7.528;2022-11-11T02:47:47;102325.56;;;8.18;100.00
55010;BME280;40903;51.638;7.528;2022-11-11T02:50:12;102324.50;;;8.19;100.00
55010;BME280;40903;51.638;7.528;2022-11-11T02:52:37;102315.50;;;8.18;100.00
55010;BME280;40903;51.638;7.528;2022-11-11T02:55:03;102326.53;;;8.23;100.00
55010;BME280;40903;51.638;7.528;2022-11-11T02:57:29;102327.59;;;8.22;100.00
55010;BME280;40903;51.638;7.528;2022-11-11T02:59:57;102324.28;;;8.20;100.00
55010;BME280;40903;51.638;7.528;2022-11-11T03:02:23;102322.63;;;8.19;100.00
55010;BME280;40903;51.638;7.528;2022-11-11T03:04:56;102318.69;;;8.15;100.00
55010;BME280;40903;51.638;7.528;2022-11-11T03:07:22;102316.44;;;8.12;100.00
55010;BME280;40903;51.638;7.528;2022-11-11T03:09:48;102316.91;;;8.09;100.00
55010;BME280;40903;51.638;7.528;2022-11-11T03:12:14;102316.53;;;8.06;100.00
55010;BME280;40903;51.638;7.528;2022-11-11T03:14:40;102314.31;;;8.03;100.00
55010;BME280;40903;51.638;7.528;2022-11-11T03:17:05;102312.06;;;8.00;100.00
55010;BME280;40903;51.638;7.528;2022-11-11T03:19:49;102307.44;;;8.00;100.00
55010;BME280;40903;51.638;7.528;2022-11-11T03:22:14;102315.84;;;7.99;100.00
55010;BME280;40903;51.638;7.528;2022-11-11T03:24:40;102308.97;;;7.96;100.00
55010;BME280;40903;51.638;7.528;2022-11-11T03:27:23;102310.03;;;7.95;100.00
55010;BME280;40903;51.638;7.528;2022-11-11T03:29:49;102312.41;;;7.92;100.00
55010;BME280;40903;51.638;7.528;2022-11-11T03:32:14;102303.06;;;7.99;100.00
55010;BME280;40903;51.638;7.528;2022-11-11T03:34:39;102302.25;;;7.99;100.00
55010;BME280;40903;51.638;7.528;2022-11-11T03:37:06;102310.84;;;7.96;100.00
55010;BME280;40903;51.638;7.528;2022-11-11T03:39:51;102311.09;;;7.94;100.00
55010;BME280;40903;51.638;7.528;2022-11-11T03:42:16;102312.66;;;7.90;100.00
55010;BME280;40903;51.638;7.528;2022-11-11T03:44:41;102306.84;;;7.87;100.00
55010;BME280;40903;51.638;7.528;2022-11-11T03:47:07;102304.59;;;7.84;100.00
55010;BME280;40903;51.638;7.528;2022-11-11T03:49:32;102311.31;;;7.81;100.00
55010;BME280;40903;51.638;7.528;2022-11-11T03:51:57;102312.38;;;7.80;100.00
55010;BME280;40903;51.638;7.528;2022-11-11T03:54:23;102320.31;;;7.82;100.00
55010;BME280;40903;51.638;7.528;2022-11-11T03:56:48;102324.22;;;7.86;100.00
55010;BME280;40903;51.638;7.528;2022-11-11T03:59:13;102316.66;;;7.88;100.00
55010;BME280;40903;51.638;7.528;2022-11-11T04:01:39;102318.53;;;7.87;100.00
55010;BME280;40903;51.638;7.528;2022-11-11T04:04:22;102326.81;;;7.92;100.00
55010;BME280;40903;51.638;7.528;2022-11-11T04:07:08;102332.84;;;7.94;100.00
55010;BME280;40903;51.638;7.528;2022-11-11T04:09:52;102329.75;;;7.91;100.00
55010;BME280;40903;51.638;7.528;2022-11-11T04:12:35;102330.00;;;7.89;100.00
55010;BME280;40903;51.638;7.528;2022-11-11T04:15:21;102333.75;;;7.88;100.00
55010;BME280;40903;51.638;7.528;2022-11-11T04:18:04;102333.75;;;7.88;100.00
55010;BME280;40903;51.638;7.528;2022-11-11T04:20:30;102324.91;;;7.93;100.00
55010;BME280;40903;51.638;7.528;2022-11-11T04:23:13;102317.72;;;8.10;100.00
55010;BME280;40903;51.638;7.528;2022-11-11T04:25:39;102324.00;;;8.10;100.00
55010;BME280;40903;51.638;7.528;2022-11-11T04:28:13;102323.41;;;8.08;100.00
55010;BME280;40903;51.638;7.528;2022-11-11T04:30:57;102319.25;;;8.06;100.00
55010;BME280;40903;51.638;7.528;2022-11-11T04:33:23;102326.13;;;8.08;100.00
55010;BME280;40903;51.638;7.528;2022-11-11T04:35:48;102324.50;;;8.19;100.00
55010;BME280;40903;51.638;7.528;2022-11-11T04:38:14;102315.06;;;8.33;98.95
55010;BME280;40903;51.638;7.528;2022-11-11T04:40:57;102314.84;;;8.34;98.42
55010;BME280;40903;51.638;7.528;2022-11-11T04:43:30;102320.28;;;8.34;98.15
55010;BME280;40903;51.638;7.528;2022-11-11T04:45:59;102322.72;;;8.36;98.29
55010;BME280;40903;51.638;7.528;2022-11-11T04:48:25;102314.47;;;8.31;97.76
55010;BME280;40903;51.638;7.528;2022-11-11T04:50:51;102318.97;;;8.25;97.98
55010;BME280;40903;51.638;7.528;2022-11-11T04:53:16;102320.94;;;8.18;98.11
55010;BME280;40903;51.638;7.528;2022-11-11T04:55:43;102317.28;;;8.13;98.44
55010;BME280;40903;51.638;7.528;2022-11-11T04:58:29;102324.22;;;8.09;98.48
55010;BME280;40903;51.638;7.528;2022-11-11T05:00:55;102321.63;;;8.02;98.62
55010;BME280;40903;51.638;7.528;2022-11-11T05:03:20;102321.72;;;7.96;99.05
55010;BME280;40903;51.638;7.528;2022-11-11T05:05:53;102331.66;;;7.90;99.33
55010;BME280;40903;51.638;7.528;2022-11-11T05:08:39;102321.72;;;7.84;99.41
55010;BME280;40903;51.638;7.528;2022-11-11T05:13:46;102327.59;;;7.70;99.40
55010;BME280;40903;51.638;7.528;2022-11-11T05:16:32;102317.66;;;7.64;99.31
55010;BME280;40903;51.638;7.528;2022-11-11T05:19:18;102328.59;;;7.58;99.26
55010;BME280;40903;51.638;7.528;2022-11-11T05:22:16;102330.59;;;7.51;99.53
55010;BME280;40903;51.638;7.528;2022-11-11T05:24:43;102324.19;;;7.45;99.98
55010;BME280;40903;51.638;7.528;2022-11-11T05:27:30;102327.59;;;7.41;100.00
55010;BME280;40903;51.638;7.528;2022-11-11T05:29:55;102322.03;;;7.36;100.00
55010;BME280;40903;51.638;7.528;2022-11-11T05:32:21;102325.44;;;7.31;100.00
55010;BME280;40903;51.638;7.528;2022-11-11T05:34:47;102328.41;;;7.30;100.00
55010;BME280;40903;51.638;7.528;2022-11-11T05:37:13;102345.97;;;7.27;100.00
55010;BME280;40903;51.638;7.528;2022-11-11T05:39:39;102350.53;;;7.27;100.00
55010;BME280;40903;51.638;7.528;2022-11-11T05:42:05;102352.66;;;7.25;100.00
55010;BME280;40903;51.638;7.528;2022-11-11T05:44:30;102357.09;;;7.19;100.00
55010;BME280;40903;51.638;7.528;2022-11-11T05:46:56;102360.53;;;7.15;100.00
55010;BME280;40903;51.638;7.528;2022-11-11T05:49:24;102360.16;;;7.11;100.00
55010;BME280;40903;51.638;7.528;2022-11-11T05:51:50;102353.75;;;7.06;100.00
55010;BME280;40903;51.638;7.528;2022-11-11T05:54:16;102363.16;;;7.03;100.00
55010;BME280;40903;51.638;7.528;2022-11-11T05:56:42;102357.38;;;7.00;100.00
55010;BME280;40903;51.638;7.528;2022-11-11T05:59:07;102368.66;;;6.97;100.00
55010;BME280;40903;51.638;7.528;2022-11-11T06:01:33;102359.72;;;6.96;100.00
55010;BME280;40903;51.638;7.528;2022-11-11T06:03:59;102357.00;;;6.96;100.00
55010;BME280;40903;51.638;7.528;2022-11-11T06:06:24;102374.94;;;6.97;100.00
55010;BME280;40903;51.638;7.528;2022-11-11T06:08:49;102369.63;;;7.02;100.00
55010;BME280;40903;51.638;7.528;2022-11-11T06:11:15;102368.44;;;7.16;100.00
55010;BME280;40903;51.638;7.528;2022-11-11T06:13:40;102372.41;;;7.32;100.00
55010;BME280;40903;51.638;7.528;2022-11-11T06:16:06;102383.44;;;7.48;100.00
55010;BME280;40903;51.638;7.528;2022-11-11T06:18:32;102384.50;;;7.47;100.00
55010;BME280;40903;51.638;7.528;2022-11-11T06:20:58;102385.56;;;7.46;100.00
55010;BME280;40903;51.638;7.528;2022-11-11T06:23:25;102392.44;;;7.49;100.00
55010;BME280;40903;51.638;7.528;2022-11-11T06:25:51;102385.59;;;7.58;100.00
55010;BME280;40903;51.638;7.528;2022-11-11T06:28:36;102403.13;;;7.62;100.00
55010;BME280;40903;51.638;7.528;2022-11-11T06:31:01;102399.94;;;7.65;100.00
55010;BME280;40903;51.638;7.528;2022-11-11T06:33:27;102408.06;;;7.65;100.00
55010;BME280;40903;51.638;7.528;2022-11-11T06:35:53;102407.59;;;7.68;100.00
55010;BME280;40903;51.638;7.528;2022-11-11T06:38:18;102399.94;;;7.65;100.00
55010;BME280;40903;51.638;7.528;2022-11-11T06:40:45;102400.31;;;7.68;100.00
55010;BME280;40903;51.638;7.528;2022-11-11T06:43:12;102399.16;;;7.75;100.00
55010;BME280;40903;51.638;7.528;2022-11-11T06:45:37;102407.22;;;7.82;100.00
55010;BME280;40903;51.638;7.528;2022-11-11T06:48:03;102405.22;;;7.89;100.00
55010;BME280;40903;51.638;7.528;2022-11-11T06:50:30;102420.72;;;8.00;100.00
55010;BME280;40903;51.638;7.528;2022-11-11T06:53:05;102421.69;;;8.05;99.78
55010;BME280;40903;51.638;7.528;2022-11-11T06:55:31;102425.00;;;8.07;99.45
55010;BME280;40903;51.638;7.528;2022-11-11T06:58:04;102428.22;;;8.16;99.28
55010;BME280;40903;51.638;7.528;2022-11-11T07:00:30;102428.03;;;8.40;97.23
55010;BME280;40903;51.638;7.528;2022-11-11T07:02:55;102438.22;;;8.45;96.09
55010;BME280;40903;51.638;7.528;2022-11-11T07:05:21;102434.34;;;8.52;95.79
55010;BME280;40903;51.638;7.528;2022-11-11T07:07:46;102434.22;;;8.59;95.12
55010;BME280;40903;51.638;7.528;2022-11-11T07:10:11;102422.03;;;8.84;93.28
55010;BME280;40903;51.638;7.528;2022-11-11T07:12:40;102422.03;;;8.84;92.48
55010;BME280;40903;51.638;7.528;2022-11-11T07:15:05;102418.25;;;8.85;92.45
55010;BME280;40903;51.638;7.528;2022-11-11T07:17:31;102419.88;;;8.98;92.06
55010;BME280;40903;51.638;7.528;2022-11-11T07:19:56;102426.53;;;9.02;91.27
55010;BME280;40903;51.638;7.528;2022-11-11T07:22:21;102426.53;;;9.02;91.37
55010;BME280;40903;51.638;7.528;2022-11-11T07:24:47;102428.06;;;9.09;91.01
55010;BME280;40903;51.638;7.528;2022-11-11T07:27:12;102426.88;;;9.17;90.63
55010;BME280;40903;51.638;7.528;2022-11-11T07:29:37;102424.47;;;9.20;90.27
55010;BME280;40903;51.638;7.528;2022-11-11T07:32:05;102429.44;;;9.23;90.03
55010;BME280;40903;51.638;7.528;2022-11-11T07:34:31;102433.94;;;9.29;89.89
55010;BME280;40903;51.638;7.528;2022-11-11T07:37:00;102425.97;;;9.39;89.13
55010;BME280;40903;51.638;7.528;2022-11-11T07:39:25;102431.47;;;9.56;87.71
55010;BME280;40903;51.638;7.528;2022-11-11T07:41:50;102422.34;;;9.62;87.01
55010;BME280;40903;51.638;7.528;2022-11-11T07:44:15;102423.41;;;9.61;86.96
55010;BME280;40903;51.638;7.528;2022-11-11T07:46:41;102425.91;;;9.62;87.15
55010;BME280;40903;51.638;7.528;2022-11-11T07:49:06;102433.19;;;9.73;85.44
55010;BME280;40903;51.638;7.528;2022-11-11T07:51:32;102433.88;;;9.80;85.39
55010;BME280;40903;51.638;7.528;2022-11-11T07:53:57;102439.66;;;9.83;84.95
55010;BME280;40903;51.638;7.528;2022-11-11T07:56:23;102445.47;;;9.87;84.92
55010;BME280;40903;51.638;7.528;2022-11-11T07:58:48;102443.53;;;9.99;83.83
55010;BME280;40903;51.638;7.528;2022-11-11T08:01:14;102446.22;;;10.10;83.20
55010;BME280;40903;51.638;7.528;2022-11-11T08:03:39;102444.28;;;10.11;83.65
55010;BME280;40903;51.638;7.528;2022-11-11T08:06:19;102447.59;;;10.13;83.10
55010;BME280;40903;51.638;7.528;2022-11-11T08:08:45;102448.22;;;10.15;83.67
55010;BME280;40903;51.638;7.528;2022-11-11T08:11:13;102455.88;;;10.18;83.11
55010;BME280;40903;51.638;7.528;2022-11-11T08:13:39;102447.63;;;10.29;82.25
55010;BME280;40903;51.638;7.528;2022-11-11T08:16:05;102455.44;;;10.37;81.85
55010;BME280;40903;51.638;7.528;2022-11-11T08:18:31;102454.19;;;10.45;81.51
55010;BME280;40903;51.638;7.528;2022-11-11T08:20:57;102454.84;;;10.52;80.30
55010;BME280;40903;51.638;7.528;2022-11-11T08:23:25;102466.66;;;10.57;80.24
55010;BME280;40903;51.638;7.528;2022-11-11T08:26:05;102462.69;;;10.65;80.13
55010;BME280;40903;51.638;7.528;2022-11-11T08:28:32;102461.69;;;10.71;80.60
55010;BME280;40903;51.638;7.528;2022-11-11T08:31:00;102463.00;;;10.85;79.61
55010;BME280;40903;51.638;7.528;2022-11-11T08:33:26;102469.44;;;10.95;79.58
55010;BME280;40903;51.638;7.528;2022-11-11T08:35:53;102468.78;;;11.05;79.44
55010;BME280;40903;51.638;7.528;2022-11-11T08:38:21;102465.38;;;11.14;79.91
55010;BME280;40903;51.638;7.528;2022-11-11T08:40:48;102466.59;;;11.23;78.87
55010;BME280;40903;51.638;7.528;2022-11-11T08:43:13;102463.66;;;11.30;78.39
55010;BME280;40903;51.638;7.528;2022-11-11T08:45:39;102468.19;;;11.41;77.59
55010;BME280;40903;51.638;7.528;2022-11-11T08:48:04;102467.75;;;11.49;77.60
55010;BME280;40903;51.638;7.528;2022-11-11T08:50:31;102464.97;;;11.65;74.95
55010;BME280;40903;51.638;7.528;2022-11-11T08:52:56;102467.56;;;11.76;74.47
55010;BME280;40903;51.638;7.528;2022-11-11T08:55:21;102470.28;;;11.98;72.04
55010;BME280;40903;51.638;7.528;2022-11-11T08:57:47;102472.50;;;12.01;72.77
55010;BME280;40903;51.638;7.528;2022-11-11T09:00:13;102462.75;;;12.10;71.84
55010;BME280;40903;51.638;7.528;2022-11-11T09:02:38;102460.06;;;12.15;71.41
55010;BME280;40903;51.638;7.528;2022-11-11T09:05:04;102461.81;;;12.26;71.95
55010;BME280;40903;51.638;7.528;2022-11-11T09:07:31;102470.72;;;12.38;70.64
55010;BME280;40903;51.638;7.528;2022-11-11T09:09:57;102466.66;;;12.45;70.71
55010;BME280;40903;51.638;7.528;2022-11-11T09:12:23;102475.78;;;12.56;69.41
55010;BME280;40903;51.638;7.528;2022-11-11T09:14:48;102479.19;;;12.68;69.39
55010;BME280;40903;51.638;7.528;2022-11-11T09:17:14;102475.94;;;12.76;69.47
55010;BME280;40903;51.638;7.528;2022-11-11T09:19:40;102478.22;;;12.84;69.75
55010;BME280;40903;51.638;7.528;2022-11-11T09:22:06;102479.97;;;12.95;67.84
55010;BME280;40903;51.638;7.528;2022-11-11T09:24:31;102480.03;;;13.05;67.73
55010;BME280;40903;51.638;7.528;2022-11-11T09:26:57;102485.09;;;13.23;65.58
55010;BME280;40903;51.638;7.528;2022-11-11T09:29:22;102491.72;;;13.32;63.80
55010;BME280;40903;51.638;7.528;2022-11-11T09:31:47;102487.09;;;13.37;65.37
55010;BME280;40903;51.638;7.528;2022-11-11T09:34:13;102500.31;;;13.45;64.75
55010;BME280;40903;51.638;7.528;2022-11-11T09:36:42;102508.59;;;13.60;62.57
55010;BME280;40903;51.638;7.528;2022-11-11T09:39:08;102506.38;;;13.57;63.60
55010;BME280;40903;51.638;7.528;2022-11-11T09:41:46;102511.59;;;13.59;64.47
55010;BME280;40903;51.638;7.528;2022-11-11T09:46:57;102512.13;;;13.56;64.82
55010;BME280;40903;51.638;7.528;2022-11-11T09:49:43;102518.97;;;13.53;64.22
55010;BME280;40903;51.638;7.528;2022-11-11T09:52:20;102515.66;;;13.51;64.74
55010;BME280;40903;51.638;7.528;2022-11-11T09:54:54;102520.53;;;13.44;64.80
55010;BME280;40903;51.638;7.528;2022-11-11T09:57:33;102529.91;;;13.48;62.97
55010;BME280;40903;51.638;7.528;2022-11-11T10:00:14;102523.28;;;13.44;62.78
55010;BME280;40903;51.638;7.528;2022-11-11T10:03:05;102525.53;;;13.47;64.27
55010;BME280;40903;51.638;7.528;2022-11-11T10:05:42;102524.97;;;13.50;65.02
55010;BME280;40903;51.638;7.528;2022-11-11T10:08:18;102518.72;;;13.60;63.43
55010;BME280;40903;51.638;7.528;2022-11-11T10:10:51;102528.38;;;13.72;62.96
55010;BME280;40903;51.638;7.528;2022-11-11T10:13:28;102521.84;;;13.83;62.19
55010;BME280;40903;51.638;7.528;2022-11-11T10:16:00;102530.94;;;13.93;62.00
55010;BME280;40903;51.638;7.528;2022-11-11T10:21:52;102514.28;;;14.15;63.77
55010;BME280;40903;51.638;7.528;2022-11-11T10:24:52;102514.91;;;14.32;60.33
55010;BME280;40903;51.638;7.528;2022-11-11T10:27:22;102523.72;;;14.39;60.79
55010;BME280;40903;51.638;7.528;2022-11-11T10:29:49;102529.19;;;14.44;59.92
55010;BME280;40903;51.638;7.528;2022-11-11T10:32:24;102524.03;;;14.57;59.33
55010;BME280;40903;51.638;7.528;2022-11-11T10:34:50;102525.66;;;14.63;58.96
55010;BME280;40903;51.638;7.528;2022-11-11T10:37:29;102532.25;;;14.67;59.64
55010;BME280;40903;51.638;7.528;2022-11-11T10:40:06;102519.59;;;14.71;59.85
55010;BME280;40903;51.638;7.528;2022-11-11T10:42:34;102528.97;;;14.80;58.55
55010;BME280;40903;51.638;7.528;2022-11-11T10:45:00;102525.38;;;14.90;58.24
55010;BME280;40903;51.638;7.528;2022-11-11T10:47:43;102525.94;;;14.97;56.69
55010;BME280;40903;51.638;7.528;2022-11-11T10:50:16;102521.00;;;14.99;59.10
55010;BME280;40903;51.638;7.528;2022-11-11T10:52:49;102524.81;;;15.08;58.19
55010;BME280;40903;51.638;7.528;2022-11-11T10:55:27;102531.41;;;15.17;58.76
55010;BME280;40903;51.638;7.528;2022-11-11T10:58:08;102537.47;;;15.29;56.19
55010;BME280;40903;51.638;7.528;2022-11-11T11:00:36;102525.63;;;15.23;56.55
55010;BME280;40903;51.638;7.528;2022-11-11T11:03:11;102531.94;;;15.24;56.93
55010;BME280;40903;51.638;7.528;2022-11-11T11:05:47;102527.84;;;15.11;56.57
55010;BME280;40903;51.638;7.528;2022-11-11T11:08:18;102519.03;;;15.14;57.00
55010;BME280;40903;51.638;7.528;2022-11-11T11:10:55;102513.81;;;15.18;57.73
55010;BME280;40903;51.638;7.528;2022-11-11T11:13:54;102503.63;;;15.28;58.66
55010;BME280;40903;51.638;7.528;2022-11-11T11:16:29;102505.56;;;15.43;57.63
55010;BME280;40903;51.638;7.528;2022-11-11T11:21:58;102502.75;;;15.63;56.29
55010;BME280;40903;51.638;7.528;2022-11-11T11:26:56;102508.16;;;15.82;55.82
55010;BME280;40903;51.638;7.528;2022-11-11T11:29:33;102502.63;;;15.92;54.09
55010;BME280;40903;51.638;7.528;2022-11-11T11:32:28;102494.88;;;15.99;53.68
55010;BME280;40903;51.638;7.528;2022-11-11T11:34:55;102503.97;;;16.00;53.71
55010;BME280;40903;51.638;7.528;2022-11-11T11:37:22;102500.63;;;16.08;53.71
55010;BME280;40903;51.638;7.528;2022-11-11T11:39:58;102498.94;;;16.12;53.76
55010;BME280;40903;51.638;7.528;2022-11-11T11:42:37;102493.69;;;16.15;53.51
55010;BME280;40903;51.638;7.528;2022-11-11T11:50:59;102490.34;;;16.23;52.42
55010;BME280;40903;51.638;7.528;2022-11-11T11:56:39;102483.13;;;16.27;52.65
55010;BME280;40903;51.638;7.528;2022-11-11T11:59:27;102480.63;;;16.36;53.03
55010;BME280;40903;51.638;7.528;2022-11-11T12:02:26;102478.66;;;16.46;51.46
55010;BME280;40903;51.638;7.528;2022-11-11T12:05:20;102480.78;;;16.54;51.75
55010;BME280;40903;51.638;7.528;2022-11-11T12:20:54;102482.69;;;16.87;47.06
55010;BME280;40903;51.638;7.528;2022-11-11T12:26:34;102485.31;;;16.74;46.45
55010;BME280;40903;51.638;7.528;2022-11-11T12:32:06;102474.09;;;16.65;48.23
55010;BME280;40903;51.638;7.528;2022-11-11T12:38:21;102466.28;;;16.77;47.36
55010;BME280;40903;51.638;7.528;2022-11-11T12:43:49;102470.63;;;16.83;46.65
55010;BME280;40903;51.638;7.528;2022-11-11T12:46:29;102467.34;;;16.81;46.92
55010;BME280;40903;51.638;7.528;2022-11-11T12:52:03;102471.78;;;16.77;47.85
55010;BME280;40903;51.638;7.528;2022-11-11T12:54:45;102463.81;;;16.76;47.64
55010;BME280;40903;51.638;7.528;2022-11-11T12:57:38;102469.84;;;16.78;46.38
55010;BME280;40903;51.638;7.528;2022-11-11T13:00:15;102466.84;;;16.74;47.66
55010;BME280;40903;51.638;7.528;2022-11-11T13:03:08;102466.84;;;16.74;47.10
55010;BME280;40903;51.638;7.528;2022-11-11T13:05:47;102466.28;;;16.77;47.10
55010;BME280;40903;51.638;7.528;2022-11-11T13:08:54;102457.50;;;16.75;46.98
55010;BME280;40903;51.638;7.528;2022-11-11T13:11:16;102466.31;;;16.72;46.69
55010;BME280;40903;51.638;7.528;2022-11-11T13:14:03;102460.84;;;16.67;46.45
55010;BME280;40903;51.638;7.528;2022-11-11T13:16:32;102462.44;;;16.73;46.49
55010;BME280;40903;51.638;7.528;2022-11-11T13:19:01;102455.34;;;16.67;47.03
55010;BME280;40903;51.638;7.528;2022-11-11T13:21:39;102462.22;;;16.65;46.27
55010;BME280;40903;51.638;7.528;2022-11-11T13:24:11;102465.31;;;16.63;46.30
55010;BME280;40903;51.638;7.528;2022-11-11T13:26:46;102470.34;;;16.51;46.36
55010;BME280;40903;51.638;7.528;2022-11-11T13:31:56;102469.81;;;16.49;46.24
55010;BME280;40903;51.638;7.528;2022-11-11T13:34:23;102458.00;;;16.44;46.61
55010;BME280;40903;51.638;7.528;2022-11-11T13:36:52;102464.13;;;16.36;47.32
55010;BME280;40903;51.638;7.528;2022-11-11T13:39:25;102462.75;;;16.33;47.48
55010;BME280;40903;51.638;7.528;2022-11-11T13:41:55;102457.25;;;16.33;47.92
55010;BME280;40903;51.638;7.528;2022-11-11T13:44:34;102466.06;;;16.30;47.45
55010;BME280;40903;51.638;7.528;2022-11-11T13:47:03;102465.28;;;16.25;47.03
55010;BME280;40903;51.638;7.528;2022-11-11T13:49:36;102466.66;;;16.22;47.48
55010;BME280;40903;51.638;7.528;2022-11-11T13:52:04;102468.38;;;16.13;47.27
55010;BME280;40903;51.638;7.528;2022-11-11T13:54:47;102475.47;;;16.24;46.52
55010;BME280;40903;51.638;7.528;2022-11-11T13:57:20;102468.94;;;16.15;46.17
55010;BME280;40903;51.638;7.528;2022-11-11T13:59:58;102471.41;;;16.12;46.42
55010;BME280;40903;51.638;7.528;2022-11-11T14:12:56;102480.78;;;16.11;46.52
55010;BME280;40903;51.638;7.528;2022-11-11T14:15:40;102484.69;;;16.00;47.28
55010;BME280;40903;51.638;7.528;2022-11-11T14:20:42;102483.94;;;15.89;47.10
55010;BME280;40903;51.638;7.528;2022-11-11T14:25:45;102478.78;;;15.73;48.44
55010;BME280;40903;51.638;7.528;2022-11-11T14:28:29;102484.88;;;15.65;49.08
55010;BME280;40903;51.638;7.528;2022-11-11T14:33:55;102472.56;;;15.43;49.64